sensor_id;sensor_type;location;lat;lon;timestamp;pressure;altitude;pressure_sealevel;temperature;humidity
46768;BME280;69007;48.978;18.066;2023-05-20T00:02:18;98126.84;;;13.19;100.00
46768;BME280;69007;48.978;18.066;2023-05-20T00:04:43;98150.09;;;13.27;100.00
46768;BME280;69007;48.978;18.066;2023-05-20T00:07:08;98137.78;;;13.24;100.00
46768;BME280;69007;48.978;18.066;2023-05-20T00:09:34;98141.88;;;13.17;100.00
46768;BME280;69007;48.978;18.066;2023-05-20T00:11:59;98139.69;;;13.14;100.00
46768;BME280;69007;48.978;18.066;2023-05-20T00:14:25;98120.25;;;13.00;100.00
46768;BME280;69007;48.978;18.066;2023-05-20T00:16:50;98118.88;;;12.97;100.00
46768;BME280;69007;48.978;18.066;2023-05-20T00:19:16;98137.50;;;13.11;100.00
46768;BME280;69007;48.978;18.066;2023-05-20T00:21:41;98134.50;;;13.07;100.00
46768;BME280;69007;48.978;18.066;2023-05-20T00:24:06;98118.03;;;12.91;100.00
46768;BME280;69007;48.978;18.066;2023-05-20T00:26:31;98114.50;;;12.91;100.00
46768;BME280;69007;48.978;18.066;2023-05-20T00:28:57;98120.22;;;12.95;100.00
46768;BME280;69007;48.978;18.066;2023-05-20T00:31:22;98126.00;;;13.03;100.00
46768;BME280;69007;48.978;18.066;2023-05-20T00:33:48;98126.56;;;13.05;100.00
46768;BME280;69007;48.978;18.066;2023-05-20T00:36:13;98129.84;;;13.07;100.00
46768;BME280;69007;48.978;18.066;2023-05-20T00:38:38;98114.50;;;13.01;100.00
46768;BME280;69007;48.978;18.066;2023-05-20T00:41:04;98135.84;;;13.04;100.00
46768;BME280;69007;48.978;18.066;2023-05-20T00:43:29;98120.75;;;12.86;100.00
46768;BME280;69007;48.978;18.066;2023-05-20T00:45:54;98123.50;;;12.91;100.00
46768;BME280;69007;48.978;18.066;2023-05-20T00:48:20;98124.34;;;12.92;100.00
46768;BME280;69007;48.978;18.066;2023-05-20T00:50:49;98137.47;;;13.00;100.00
46768;BME280;69007;48.978;18.066;2023-05-20T00:53:16;98134.47;;;13.02;100.00
46768;BME280;69007;48.978;18.066;2023-05-20T00:55:45;98129.28;;;13.05;100.00
46768;BME280;69007;48.978;18.066;2023-05-20T00:58:11;98130.38;;;13.04;100.00
46768;BME280;69007;48.978;18.066;2023-05-20T01:00:36;98136.38;;;13.01;100.00
46768;BME280;69007;48.978;18.066;2023-05-20T01:03:02;98141.81;;;12.96;100.00
46768;BME280;69007;48.978;18.066;2023-05-20T01:05:27;98130.91;;;12.96;100.00
46768;BME280;69007;48.978;18.066;2023-05-20T01:07:53;98124.53;;;12.75;100.00
46768;BME280;69007;48.978;18.066;2023-05-20T01:10:18;98132.47;;;12.77;100.00
46768;BME280;69007;48.978;18.066;2023-05-20T01:12:53;98133.56;;;12.70;100.00
46768;BME280;69007;48.978;18.066;2023-05-20T01:15:20;98113.59;;;12.65;100.00
46768;BME280;69007;48.978;18.066;2023-05-20T01:17:51;98116.31;;;12.70;100.00
46768;BME280;69007;48.978;18.066;2023-05-20T01:20:17;98132.19;;;12.78;100.00
46768;BME280;69007;48.978;18.066;2023-05-20T01:22:51;98123.16;;;12.67;100.00
46768;BME280;69007;48.978;18.066;2023-05-20T01:25:16;98137.91;;;12.71;100.00
46768;BME280;69007;48.978;18.066;2023-05-20T01:27:42;98138.44;;;12.73;100.00
46768;BME280;69007;48.978;18.066;2023-05-20T01:30:08;98132.19;;;12.73;100.00
46768;BME280;69007;48.978;18.066;2023-05-20T01:32:36;98123.19;;;12.78;100.00
46768;BME280;69007;48.978;18.066;2023-05-20T01:35:03;98125.94;;;12.83;100.00
46768;BME280;69007;48.978;18.066;2023-05-20T01:37:30;98110.63;;;12.77;100.00
46768;BME280;69007;48.978;18.066;2023-05-20T01:39:56;98125.13;;;12.82;100.00
46768;BME280;69007;48.978;18.066;2023-05-20T01:42:22;98115.53;;;12.75;100.00
46768;BME280;69007;48.978;18.066;2023-05-20T01:44:50;98104.88;;;12.73;100.00
46768;BME280;69007;48.978;18.066;2023-05-20T01:47:15;98115.50;;;12.69;100.00
46768;BME280;69007;48.978;18.066;2023-05-20T01:49:40;98122.06;;;12.73;100.00
46768;BME280;69007;48.978;18.066;2023-05-20T01:52:06;98118.25;;;12.75;100.00
46768;BME280;69007;48.978;18.066;2023-05-20T01:54:31;98124.00;;;12.78;100.00
46768;BME280;69007;48.978;18.066;2023-05-20T01:56:57;98122.66;;;12.81;100.00
46768;BME280;69007;48.978;18.066;2023-05-20T01:59:22;98112.81;;;12.75;100.00
46768;BME280;69007;48.978;18.066;2023-05-20T02:01:47;98113.66;;;12.80;100.00
46768;BME280;69007;48.978;18.066;2023-05-20T02:04:12;98116.13;;;12.87;100.00
46768;BME280;69007;48.978;18.066;2023-05-20T02:06:38;98128.72;;;12.98;100.00
46768;BME280;69007;48.978;18.066;2023-05-20T02:09:04;98134.47;;;13.02;100.00
46768;BME280;69007;48.978;18.066;2023-05-20T02:11:29;98103.84;;;12.89;100.00
46768;BME280;69007;48.978;18.066;2023-05-20T02:13:54;98122.16;;;12.94;100.00
46768;BME280;69007;48.978;18.066;2023-05-20T02:16:20;98109.56;;;12.83;100.00
46768;BME280;69007;48.978;18.066;2023-05-20T02:18:45;98130.34;;;12.94;100.00
46768;BME280;69007;48.978;18.066;2023-05-20T02:21:10;98126.50;;;12.90;100.00
46768;BME280;69007;48.978;18.066;2023-05-20T02:23:36;98130.59;;;12.87;100.00
46768;BME280;69007;48.978;18.066;2023-05-20T02:26:01;98118.03;;;12.86;100.00
46768;BME280;69007;48.978;18.066;2023-05-20T02:28:26;98123.75;;;12.90;100.00
46768;BME280;69007;48.978;18.066;2023-05-20T02:30:52;98116.41;;;12.90;100.00
46768;BME280;69007;48.978;18.066;2023-05-20T02:33:18;98125.97;;;12.93;100.00
46768;BME280;69007;48.978;18.066;2023-05-20T02:35:43;98119.16;;;12.90;100.00
46768;BME280;69007;48.978;18.066;2023-05-20T02:38:10;98114.19;;;12.77;100.00
46768;BME280;69007;48.978;18.066;2023-05-20T02:40:35;98125.38;;;12.76;100.00
46768;BME280;69007;48.978;18.066;2023-05-20T02:43:01;98130.56;;;12.77;100.00
46768;BME280;69007;48.978;18.066;2023-05-20T02:45:27;98118.25;;;12.75;100.00
46768;BME280;69007;48.978;18.066;2023-05-20T02:47:52;98125.91;;;12.78;100.00
46768;BME280;69007;48.978;18.066;2023-05-20T02:50:17;98122.38;;;12.72;100.00
46768;BME280;69007;48.978;18.066;2023-05-20T02:52:43;98131.38;;;12.72;100.00
46768;BME280;69007;48.978;18.066;2023-05-20T02:55:10;98103.44;;;12.55;100.00
46768;BME280;69007;48.978;18.066;2023-05-20T02:57:35;98139.53;;;12.62;100.00
46768;BME280;69007;48.978;18.066;2023-05-20T03:00:04;98134.31;;;12.61;100.00
46768;BME280;69007;48.978;18.066;2023-05-20T03:02:31;98134.06;;;12.62;100.00
46768;BME280;69007;48.978;18.066;2023-05-20T03:04:56;98136.78;;;12.62;100.00
46768;BME280;69007;48.978;18.066;2023-05-20T03:07:22;98131.06;;;12.64;100.00
46768;BME280;69007;48.978;18.066;2023-05-20T03:09:47;98121.47;;;12.56;100.00
46768;BME280;69007;48.978;18.066;2023-05-20T03:12:12;98141.69;;;12.65;100.00
46768;BME280;69007;48.978;18.066;2023-05-20T03:14:38;98130.25;;;12.68;100.00
46768;BME280;69007;48.978;18.066;2023-05-20T03:17:03;98116.28;;;12.60;100.00
46768;BME280;69007;48.978;18.066;2023-05-20T03:19:29;98132.19;;;12.78;100.00
46768;BME280;69007;48.978;18.066;2023-05-20T03:21:54;98141.25;;;12.84;100.00
46768;BME280;69007;48.978;18.066;2023-05-20T03:24:19;98134.16;;;12.88;100.00
46768;BME280;69007;48.978;18.066;2023-05-20T03:26:47;98140.41;;;12.88;100.00
46768;BME280;69007;48.978;18.066;2023-05-20T03:29:12;98119.38;;;12.79;100.00
46768;BME280;69007;48.978;18.066;2023-05-20T03:31:38;98139.59;;;12.88;100.00
46768;BME280;69007;48.978;18.066;2023-05-20T03:34:03;98120.22;;;12.89;100.00
46768;BME280;69007;48.978;18.066;2023-05-20T03:36:28;98133.66;;;13.06;100.00
46768;BME280;69007;48.978;18.066;2023-05-20T03:38:54;98128.50;;;13.15;100.00
46768;BME280;69007;48.978;18.066;2023-05-20T03:41:19;98124.13;;;13.19;100.00
46768;BME280;69007;48.978;18.066;2023-05-20T03:43:45;98138.91;;;13.28;100.00
46768;BME280;69007;48.978;18.066;2023-05-20T03:46:10;98116.81;;;13.35;100.00
46768;BME280;69007;48.978;18.066;2023-05-20T03:48:35;98134.59;;;13.58;100.00
46768;BME280;69007;48.978;18.066;2023-05-20T03:51:01;98119.00;;;13.54;100.00
46768;BME280;69007;48.978;18.066;2023-05-20T03:53:26;98115.72;;;13.72;100.00
46768;BME280;69007;48.978;18.066;2023-05-20T03:55:52;98124.19;;;13.91;100.00
46768;BME280;69007;48.978;18.066;2023-05-20T03:58:17;98137.00;;;14.16;100.00
46768;BME280;69007;48.978;18.066;2023-05-20T04:00:45;98125.75;;;14.33;100.00
46768;BME280;69007;48.978;18.066;2023-05-20T04:03:11;98134.75;;;14.49;100.00
46768;BME280;69007;48.978;18.066;2023-05-20T04:05:36;98139.69;;;14.52;100.00
46768;BME280;69007;48.978;18.066;2023-05-20T04:08:02;98114.78;;;14.49;100.00
46768;BME280;69007;48.978;18.066;2023-05-20T04:10:29;98141.84;;;14.66;100.00
46768;BME280;69007;48.978;18.066;2023-05-20T04:12:56;98152.28;;;14.64;100.00
46768;BME280;69007;48.978;18.066;2023-05-20T04:15:22;98135.84;;;14.64;100.00
46768;BME280;69007;48.978;18.066;2023-05-20T04:17:50;98144.34;;;14.52;100.00
46768;BME280;69007;48.978;18.066;2023-05-20T04:20:17;98140.47;;;14.63;100.00
46768;BME280;69007;48.978;18.066;2023-05-20T04:22:43;98140.72;;;14.77;100.00
46768;BME280;69007;48.978;18.066;2023-05-20T04:25:09;98138.78;;;15.27;100.00
46768;BME280;69007;48.978;18.066;2023-05-20T04:27:34;98144.56;;;15.65;100.00
46768;BME280;69007;48.978;18.066;2023-05-20T04:30:02;98128.63;;;15.73;100.00
46768;BME280;69007;48.978;18.066;2023-05-20T04:32:28;98147.16;;;15.91;100.00
46768;BME280;69007;48.978;18.066;2023-05-20T04:34:54;98146.06;;;15.87;100.00
46768;BME280;69007;48.978;18.066;2023-05-20T04:37:20;98124.22;;;15.77;100.00
46768;BME280;69007;48.978;18.066;2023-05-20T04:39:46;98135.72;;;15.74;100.00
46768;BME280;69007;48.978;18.066;2023-05-20T04:42:14;98144.31;;;16.01;100.00
46768;BME280;69007;48.978;18.066;2023-05-20T04:44:42;98144.91;;;16.76;100.00
46768;BME280;69007;48.978;18.066;2023-05-20T04:47:10;98139.63;;;17.99;100.00
46768;BME280;69007;48.978;18.066;2023-05-20T04:49:36;98147.03;;;19.28;100.00
46768;BME280;69007;48.978;18.066;2023-05-20T04:52:02;98146.91;;;19.33;100.00
46768;BME280;69007;48.978;18.066;2023-05-20T04:54:28;98153.25;;;19.70;100.00
46768;BME280;69007;48.978;18.066;2023-05-20T04:56:55;98143.19;;;19.52;100.00
46768;BME280;69007;48.978;18.066;2023-05-20T04:59:20;98150.94;;;19.50;100.00
46768;BME280;69007;48.978;18.066;2023-05-20T05:01:46;98150.97;;;19.86;100.00
46768;BME280;69007;48.978;18.066;2023-05-20T05:04:11;98137.13;;;19.27;100.00
46768;BME280;69007;48.978;18.066;2023-05-20T05:06:36;98159.47;;;19.40;100.00
46768;BME280;69007;48.978;18.066;2023-05-20T05:09:02;98154.34;;;19.47;100.00
46768;BME280;69007;48.978;18.066;2023-05-20T05:11:27;98137.97;;;20.41;100.00
46768;BME280;69007;48.978;18.066;2023-05-20T05:13:53;98124.63;;;20.34;100.00
46768;BME280;69007;48.978;18.066;2023-05-20T05:16:19;98146.09;;;19.47;100.00
46768;BME280;69007;48.978;18.066;2023-05-20T05:18:44;98146.16;;;19.19;100.00
46768;BME280;69007;48.978;18.066;2023-05-20T05:21:09;98136.16;;;18.95;100.00
46768;BME280;69007;48.978;18.066;2023-05-20T05:23:35;98151.34;;;19.21;100.00
46768;BME280;69007;48.978;18.066;2023-05-20T05:26:00;98151.31;;;19.34;100.00
46768;BME280;69007;48.978;18.066;2023-05-20T05:28:26;98151.78;;;19.00;100.00
46768;BME280;69007;48.978;18.066;2023-05-20T05:30:53;98154.41;;;19.19;100.00
46768;BME280;69007;48.978;18.066;2023-05-20T05:33:19;98147.28;;;21.51;99.19
46768;BME280;69007;48.978;18.066;2023-05-20T05:35:44;98137.75;;;24.14;84.59
46768;BME280;69007;48.978;18.066;2023-05-20T05:38:10;98156.56;;;27.10;72.36
46768;BME280;69007;48.978;18.066;2023-05-20T05:40:35;98160.34;;;28.08;66.56
46768;BME280;69007;48.978;18.066;2023-05-20T05:43:01;98147.81;;;29.64;61.21
46768;BME280;69007;48.978;18.066;2023-05-20T05:45:26;98148.06;;;30.94;56.07
46768;BME280;69007;48.978;18.066;2023-05-20T05:47:51;98162.97;;;30.57;55.81
46768;BME280;69007;48.978;18.066;2023-05-20T05:50:17;98165.31;;;30.52;54.93
46768;BME280;69007;48.978;18.066;2023-05-20T05:52:42;98158.22;;;31.10;53.83
46768;BME280;69007;48.978;18.066;2023-05-20T05:55:09;98156.19;;;32.68;49.19
46768;BME280;69007;48.978;18.066;2023-05-20T05:57:34;98144.75;;;33.97;45.35
46768;BME280;69007;48.978;18.066;2023-05-20T05:59:59;98135.78;;;34.13;44.08
46768;BME280;69007;48.978;18.066;2023-05-20T06:02:25;98141.44;;;34.84;41.89
46768;BME280;69007;48.978;18.066;2023-05-20T06:04:51;98136.81;;;33.56;44.29
46768;BME280;69007;48.978;18.066;2023-05-20T06:07:16;98136.41;;;33.47;43.89
46768;BME280;69007;48.978;18.066;2023-05-20T06:09:43;98135.25;;;32.91;42.48
46768;BME280;69007;48.978;18.066;2023-05-20T06:12:08;98139.22;;;32.36;45.00
46768;BME280;69007;48.978;18.066;2023-05-20T06:14:33;98147.34;;;32.66;44.54
46768;BME280;69007;48.978;18.066;2023-05-20T06:16:59;98138.84;;;30.15;50.80
46768;BME280;69007;48.978;18.066;2023-05-20T06:19:24;98139.38;;;29.10;54.32
46768;BME280;69007;48.978;18.066;2023-05-20T06:21:50;98129.44;;;28.20;55.64
46768;BME280;69007;48.978;18.066;2023-05-20T06:24:15;98124.91;;;26.70;60.48
46768;BME280;69007;48.978;18.066;2023-05-20T06:26:40;98141.91;;;25.92;62.17
46768;BME280;69007;48.978;18.066;2023-05-20T06:29:05;98135.63;;;24.90;65.49
46768;BME280;69007;48.978;18.066;2023-05-20T06:31:31;98131.19;;;23.85;70.48
46768;BME280;69007;48.978;18.066;2023-05-20T06:33:56;98135.69;;;23.26;73.87
46768;BME280;69007;48.978;18.066;2023-05-20T06:36:21;98115.50;;;22.87;74.95
46768;BME280;69007;48.978;18.066;2023-05-20T06:38:47;98124.56;;;22.96;75.52
46768;BME280;69007;48.978;18.066;2023-05-20T06:41:12;98111.72;;;22.92;75.17
46768;BME280;69007;48.978;18.066;2023-05-20T06:43:37;98122.63;;;22.67;75.37
46768;BME280;69007;48.978;18.066;2023-05-20T06:46:04;98131.34;;;22.48;76.78
46768;BME280;69007;48.978;18.066;2023-05-20T06:48:30;98134.16;;;22.22;77.42
46768;BME280;69007;48.978;18.066;2023-05-20T06:50:55;98117.41;;;22.01;78.78
46768;BME280;69007;48.978;18.066;2023-05-20T06:53:21;98121.66;;;21.98;79.12
46768;BME280;69007;48.978;18.066;2023-05-20T06:55:46;98114.19;;;21.90;81.35
46768;BME280;69007;48.978;18.066;2023-05-20T06:58:11;98112.22;;;21.90;81.11
46768;BME280;69007;48.978;18.066;2023-05-20T07:00:37;98129.34;;;21.84;79.63
46768;BME280;69007;48.978;18.066;2023-05-20T07:03:03;98102.31;;;21.63;81.98
46768;BME280;69007;48.978;18.066;2023-05-20T07:05:28;98101.31;;;21.85;81.15
46768;BME280;69007;48.978;18.066;2023-05-20T07:07:55;98106.03;;;21.76;80.87
46768;BME280;69007;48.978;18.066;2023-05-20T07:10:20;98096.59;;;21.42;84.87
46768;BME280;69007;48.978;18.066;2023-05-20T07:12:46;98080.97;;;21.29;85.51
46768;BME280;69007;48.978;18.066;2023-05-20T07:15:11;98094.16;;;21.32;85.42
46768;BME280;69007;48.978;18.066;2023-05-20T07:17:36;98084.50;;;21.03;89.36
46768;BME280;69007;48.978;18.066;2023-05-20T07:20:02;98103.75;;;21.26;87.21
46768;BME280;69007;48.978;18.066;2023-05-20T07:22:28;98088.28;;;21.42;85.44
46768;BME280;69007;48.978;18.066;2023-05-20T07:24:53;98101.50;;;21.63;83.92
46768;BME280;69007;48.978;18.066;2023-05-20T07:27:19;98096.75;;;21.54;85.46
46768;BME280;69007;48.978;18.066;2023-05-20T07:29:44;98073.63;;;21.42;87.31
46768;BME280;69007;48.978;18.066;2023-05-20T07:32:10;98095.47;;;21.78;85.45
46768;BME280;69007;48.978;18.066;2023-05-20T07:34:35;98095.28;;;21.83;83.75
46768;BME280;69007;48.978;18.066;2023-05-20T07:37:01;98076.38;;;21.85;83.62
46768;BME280;69007;48.978;18.066;2023-05-20T07:39:26;98091.72;;;21.74;83.55
46768;BME280;69007;48.978;18.066;2023-05-20T07:41:51;98069.59;;;21.57;84.66
46768;BME280;69007;48.978;18.066;2023-05-20T07:44:17;98074.13;;;21.61;85.96
46768;BME280;69007;48.978;18.066;2023-05-20T07:46:48;98083.69;;;21.99;85.82
46768;BME280;69007;48.978;18.066;2023-05-20T07:49:13;98091.47;;;22.05;84.76
46768;BME280;69007;48.978;18.066;2023-05-20T07:51:39;98090.97;;;22.30;83.64
46768;BME280;69007;48.978;18.066;2023-05-20T07:54:05;98071.38;;;22.35;82.50
46768;BME280;69007;48.978;18.066;2023-05-20T07:56:30;98070.03;;;22.41;82.84
46768;BME280;69007;48.978;18.066;2023-05-20T07:58:57;98055.88;;;22.25;85.63
46768;BME280;69007;48.978;18.066;2023-05-20T08:01:23;98078.88;;;22.25;83.90
46768;BME280;69007;48.978;18.066;2023-05-20T08:03:48;98062.59;;;22.15;86.19
46768;BME280;69007;48.978;18.066;2023-05-20T08:06:14;98057.19;;;22.27;84.90
46768;BME280;69007;48.978;18.066;2023-05-20T08:08:39;98067.28;;;22.41;83.34
46768;BME280;69007;48.978;18.066;2023-05-20T08:11:06;98046.03;;;22.45;82.87
46768;BME280;69007;48.978;18.066;2023-05-20T08:13:31;98061.81;;;22.53;81.95
46768;BME280;69007;48.978;18.066;2023-05-20T08:15:56;98063.66;;;22.49;83.63
46768;BME280;69007;48.978;18.066;2023-05-20T08:18:22;98066.91;;;22.51;87.16
46768;BME280;69007;48.978;18.066;2023-05-20T08:20:47;98069.09;;;22.67;84.72
46768;BME280;69007;48.978;18.066;2023-05-20T08:23:13;98065.56;;;22.87;81.52
46768;BME280;69007;48.978;18.066;2023-05-20T08:25:38;98050.13;;;22.77;82.25
46768;BME280;69007;48.978;18.066;2023-05-20T08:28:04;98052.72;;;23.04;81.70
46768;BME280;69007;48.978;18.066;2023-05-20T08:30:31;98034.94;;;22.54;83.56
46768;BME280;69007;48.978;18.066;2023-05-20T08:32:57;98024.53;;;22.42;84.51
46768;BME280;69007;48.978;18.066;2023-05-20T08:35:22;98030.38;;;22.79;82.53
46768;BME280;69007;48.978;18.066;2023-05-20T08:37:48;98026.25;;;22.85;83.63
46768;BME280;69007;48.978;18.066;2023-05-20T08:40:13;98035.63;;;22.93;81.60
46768;BME280;69007;48.978;18.066;2023-05-20T08:42:44;98029.75;;;22.94;82.61
46768;BME280;69007;48.978;18.066;2023-05-20T08:45:10;98026.25;;;22.85;84.98
46768;BME280;69007;48.978;18.066;2023-05-20T08:47:39;98040.78;;;23.03;80.46
46768;BME280;69007;48.978;18.066;2023-05-20T08:50:05;98031.28;;;23.13;80.97
46768;BME280;69007;48.978;18.066;2023-05-20T08:52:33;98026.91;;;23.12;79.61
46768;BME280;69007;48.978;18.066;2023-05-20T08:54:59;98020.84;;;23.10;81.10
46768;BME280;69007;48.978;18.066;2023-05-20T08:57:25;98032.53;;;22.94;76.57
46768;BME280;69007;48.978;18.066;2023-05-20T08:59:52;98013.78;;;22.91;78.77
46768;BME280;69007;48.978;18.066;2023-05-20T09:02:17;98007.53;;;22.73;80.81
46768;BME280;69007;48.978;18.066;2023-05-20T09:04:43;98016.50;;;23.00;80.88
46768;BME280;69007;48.978;18.066;2023-05-20T09:07:08;98016.84;;;23.19;76.79
46768;BME280;69007;48.978;18.066;2023-05-20T09:09:34;97993.97;;;23.23;78.02
46768;BME280;69007;48.978;18.066;2023-05-20T09:12:00;98019.53;;;23.49;80.07
46768;BME280;69007;48.978;18.066;2023-05-20T09:14:27;98011.38;;;23.32;78.94
46768;BME280;69007;48.978;18.066;2023-05-20T09:16:53;98008.47;;;23.28;77.75
46768;BME280;69007;48.978;18.066;2023-05-20T09:19:21;98007.31;;;23.29;78.22
46768;BME280;69007;48.978;18.066;2023-05-20T09:21:46;98012.91;;;23.42;81.22
46768;BME280;69007;48.978;18.066;2023-05-20T09:24:12;98023.84;;;23.26;78.61
46768;BME280;69007;48.978;18.066;2023-05-20T09:26:37;98020.09;;;23.00;78.47
46768;BME280;69007;48.978;18.066;2023-05-20T09:29:03;98016.81;;;23.07;75.87
46768;BME280;69007;48.978;18.066;2023-05-20T09:31:32;98006.50;;;23.29;80.55
46768;BME280;69007;48.978;18.066;2023-05-20T09:33:59;98015.50;;;23.26;78.03
46768;BME280;69007;48.978;18.066;2023-05-20T09:36:27;97986.94;;;23.25;81.11
46768;BME280;69007;48.978;18.066;2023-05-20T09:38:56;98009.56;;;23.15;78.41
46768;BME280;69007;48.978;18.066;2023-05-20T09:41:30;97995.59;;;23.45;78.92
46768;BME280;69007;48.978;18.066;2023-05-20T09:43:58;98002.69;;;23.54;78.93
46768;BME280;69007;48.978;18.066;2023-05-20T09:46:25;97986.38;;;23.65;74.87
46768;BME280;69007;48.978;18.066;2023-05-20T09:48:51;97986.94;;;23.59;73.52
46768;BME280;69007;48.978;18.066;2023-05-20T09:51:17;98003.50;;;23.67;74.35
46768;BME280;69007;48.978;18.066;2023-05-20T09:53:43;98009.78;;;23.77;74.23
46768;BME280;69007;48.978;18.066;2023-05-20T09:56:09;98002.78;;;23.91;71.84
46768;BME280;69007;48.978;18.066;2023-05-20T09:58:35;97982.53;;;23.91;69.62
46768;BME280;69007;48.978;18.066;2023-05-20T10:01:00;97984.28;;;23.96;73.59
46768;BME280;69007;48.978;18.066;2023-05-20T10:03:26;97991.34;;;24.30;69.87
46768;BME280;69007;48.978;18.066;2023-05-20T10:06:29;97994.94;;;24.43;72.04
46768;BME280;69007;48.978;18.066;2023-05-20T10:14:44;97965.28;;;24.22;60.06
46768;BME280;69007;48.978;18.066;2023-05-20T10:20:07;97967.81;;;24.64;63.53
46768;BME280;69007;48.978;18.066;2023-05-20T10:22:37;97962.16;;;24.61;63.50
46768;BME280;69007;48.978;18.066;2023-05-20T10:25:05;97950.78;;;24.66;61.05
46768;BME280;69007;48.978;18.066;2023-05-20T10:27:45;97963.19;;;24.44;57.11
46768;BME280;69007;48.978;18.066;2023-05-20T10:30:22;97972.84;;;24.59;59.08
46768;BME280;69007;48.978;18.066;2023-05-20T10:32:52;97964.00;;;24.81;62.51
46768;BME280;69007;48.978;18.066;2023-05-20T10:35:21;97959.06;;;24.91;61.67
46768;BME280;69007;48.978;18.066;2023-05-20T10:37:47;97959.84;;;25.04;62.16
46768;BME280;69007;48.978;18.066;2023-05-20T10:40:14;97946.81;;;25.08;60.73
46768;BME280;69007;48.978;18.066;2023-05-20T10:42:40;97951.53;;;25.32;62.58
46768;BME280;69007;48.978;18.066;2023-05-20T10:45:06;97958.91;;;25.40;61.00
46768;BME280;69007;48.978;18.066;2023-05-20T10:47:33;97946.97;;;25.11;58.76
46768;BME280;69007;48.978;18.066;2023-05-20T10:49:58;97952.91;;;25.26;57.30
46768;BME280;69007;48.978;18.066;2023-05-20T10:52:26;97948.28;;;25.30;58.35
46768;BME280;69007;48.978;18.066;2023-05-20T10:54:58;97945.78;;;25.12;56.84
46768;BME280;69007;48.978;18.066;2023-05-20T10:57:26;97930.19;;;25.24;58.60
46768;BME280;69007;48.978;18.066;2023-05-20T10:59:52;97931.19;;;25.60;60.57
46768;BME280;69007;48.978;18.066;2023-05-20T11:02:18;97928.50;;;25.95;60.56
46768;BME280;69007;48.978;18.066;2023-05-20T11:04:47;97922.94;;;26.27;59.96
46768;BME280;69007;48.978;18.066;2023-05-20T11:07:26;97921.84;;;26.32;56.17
46768;BME280;69007;48.978;18.066;2023-05-20T11:09:53;97921.22;;;26.22;56.54
46768;BME280;69007;48.978;18.066;2023-05-20T11:12:20;97915.94;;;26.17;57.06
46768;BME280;69007;48.978;18.066;2023-05-20T11:14:48;97914.75;;;26.18;57.17
46768;BME280;69007;48.978;18.066;2023-05-20T11:17:13;97904.16;;;26.08;57.65
46768;BME280;69007;48.978;18.066;2023-05-20T11:19:38;97891.38;;;26.07;56.31
46768;BME280;69007;48.978;18.066;2023-05-20T11:22:06;97902.97;;;26.09;55.54
46768;BME280;69007;48.978;18.066;2023-05-20T11:24:32;97904.16;;;26.08;58.54
46768;BME280;69007;48.978;18.066;2023-05-20T11:26:59;97916.91;;;25.93;56.49
46768;BME280;69007;48.978;18.066;2023-05-20T11:29:26;97907.03;;;25.96;57.33
46768;BME280;69007;48.978;18.066;2023-05-20T11:31:53;97894.25;;;26.10;57.48
46768;BME280;69007;48.978;18.066;2023-05-20T11:34:20;97882.69;;;26.28;60.01
46768;BME280;69007;48.978;18.066;2023-05-20T11:36:46;97901.25;;;26.56;61.40
46768;BME280;69007;48.978;18.066;2023-05-20T11:39:12;97886.97;;;26.22;58.15
46768;BME280;69007;48.978;18.066;2023-05-20T11:41:41;97895.66;;;25.88;55.08
46768;BME280;69007;48.978;18.066;2023-05-20T11:44:09;97899.44;;;25.48;55.09
46768;BME280;69007;48.978;18.066;2023-05-20T11:46:41;97881.91;;;25.64;56.77
46768;BME280;69007;48.978;18.066;2023-05-20T11:49:06;97883.00;;;25.59;58.97
46768;BME280;69007;48.978;18.066;2023-05-20T11:51:32;97892.34;;;25.67;57.24
46768;BME280;69007;48.978;18.066;2023-05-20T11:54:00;97897.31;;;25.58;58.40
46768;BME280;69007;48.978;18.066;2023-05-20T11:56:30;97875.19;;;25.65;61.93
46768;BME280;69007;48.978;18.066;2023-05-20T11:58:58;97878.06;;;25.84;58.49
46768;BME280;69007;48.978;18.066;2023-05-20T12:01:24;97889.00;;;25.77;57.34
46768;BME280;69007;48.978;18.066;2023-05-20T12:03:49;97882.56;;;26.05;56.38
46768;BME280;69007;48.978;18.066;2023-05-20T12:06:16;97881.88;;;26.27;55.11
46768;BME280;69007;48.978;18.066;2023-05-20T12:08:41;97871.47;;;26.24;54.63
46768;BME280;69007;48.978;18.066;2023-05-20T12:11:07;97870.88;;;26.15;54.57
46768;BME280;69007;48.978;18.066;2023-05-20T12:13:32;97872.03;;;26.14;53.49
46768;BME280;69007;48.978;18.066;2023-05-20T12:15:57;97870.03;;;26.15;54.89
46768;BME280;69007;48.978;18.066;2023-05-20T12:18:23;97897.03;;;25.94;55.43
46768;BME280;69007;48.978;18.066;2023-05-20T12:20:48;97883.63;;;25.84;54.10
46768;BME280;69007;48.978;18.066;2023-05-20T12:23:14;97877.44;;;26.07;51.66
46768;BME280;69007;48.978;18.066;2023-05-20T12:25:39;97873.00;;;26.22;52.23
46768;BME280;69007;48.978;18.066;2023-05-20T12:28:04;97871.34;;;26.37;53.72
46768;BME280;69007;48.978;18.066;2023-05-20T12:30:30;97866.34;;;26.46;54.30
46768;BME280;69007;48.978;18.066;2023-05-20T12:32:56;97851.94;;;26.24;57.47
46768;BME280;69007;48.978;18.066;2023-05-20T12:35:35;97846.34;;;26.60;58.23
46768;BME280;69007;48.978;18.066;2023-05-20T12:38:00;97839.41;;;26.70;54.78
46768;BME280;69007;48.978;18.066;2023-05-20T12:40:26;97867.31;;;26.70;52.74
46768;BME280;69007;48.978;18.066;2023-05-20T12:42:51;97850.06;;;26.28;50.76
46768;BME280;69007;48.978;18.066;2023-05-20T12:45:16;97847.38;;;26.16;51.74
46768;BME280;69007;48.978;18.066;2023-05-20T12:47:42;97850.81;;;26.09;54.34
46768;BME280;69007;48.978;18.066;2023-05-20T12:50:08;97845.97;;;25.90;50.46